Tropical Cyclones
[Index]
Main Index Home Page Stock Weather Photos Extreme Storms Discussion Storm News and Storm Chasing Reports Tropical Cyclones / Hurricanes / Typhoons Weather Data and Links Wild Fires / Bushfires Weather Observation Techniques Weather Picture Catalogue Tornado Pictures and Reports Stock Video Footage and DVDs for sale
Season 1974-1975 Tropical Cyclone BEVERLEY Track Map
Season 1974-1975 Summaries: [BoM-AU] [JTWC-AU] [JTWC-SIO] [JTWC-SPAC] [JTWC-SH]
<<- Previous TC | JTWC 1974-1975 Season | Next TC ->>

click for intensity scale information  Lat/long Grid: Show Hide

 Date Labels: Show Hide

Joint Typhoon Warning Centre Cyclone Data

Name: BEVERLEY
Number: 900 / 7528

22 Mar 1975 00:00 UTC to 01 Apr 1975 12:00 UTC

    date/time    lat    long     hPa   cat  kts
1975-03-22 00   12.2   116.0                              
1975-03-22 06   12.3   116.0                              
1975-03-22 12   12.4   116.0                              
1975-03-22 18   12.6   116.0                              
1975-03-23 00   12.9   116.0                              
1975-03-23 06   13.0   116.0                              
1975-03-23 12   13.2   116.1                              
1975-03-23 18   13.4   116.1                              
1975-03-24 00   13.8   116.1                              
1975-03-24 06   14.3   116.1                              
1975-03-24 12   14.8   116.0                              
1975-03-24 18   15.3   116.0                              
1975-03-25 00   15.7   115.9                              
1975-03-25 06   16.0   115.9                              
1975-03-25 12   16.4   115.8                              
1975-03-25 18   16.7   115.7                              
1975-03-26 00   17.1   115.6                              
1975-03-26 06   17.3   115.1                              
1975-03-26 12   17.5   114.5                              
1975-03-26 18   17.8   114.3                              
1975-03-27 00   18.0   114.0                              
1975-03-27 06   18.2   113.7                              
1975-03-27 12   18.2   113.3                              
1975-03-27 18   18.2   113.0                              
1975-03-28 00   18.1   112.7                              
1975-03-28 06   18.1   112.1                              
1975-03-28 12   18.0   111.4                              
1975-03-28 18   18.1   110.8                              
1975-03-29 00   18.2   110.6                              
1975-03-29 06   18.3   110.7                              
1975-03-29 12   18.5   110.9                              
1975-03-29 18   18.7   111.0                              
1975-03-30 00   19.0   111.3                              
1975-03-30 06   19.6   111.9                              
1975-03-30 12   20.3   112.6                              
1975-03-30 18   20.9   113.3                              
1975-03-31 00   22.0   114.0                              
1975-03-31 06   23.7   114.0                              
1975-03-31 12   25.4   114.2                              
1975-03-31 18   27.1   115.1                              
1975-04-01 00   28.7   116.0                              
1975-04-01 06   30.3   116.9                              
1975-04-01 12   31.8   117.8                              
Winds are 1-min average.

Tropical cyclone tracks developed by Michael Bath using data from the Joint Typhoon Warning Centre Best Tracks and Google Maps.


[Australian Severe Weather index] [Copyright Notice] [Email Contacts] [Search This Site] [Privacy Policy]
Document: tropical_cyclone_beverley.htm Updated: 18 September 2016